sensor_id;sensor_type;location;lat;lon;timestamp;P1;durP1;ratioP1;P2;durP2;ratioP2
67889;SDS011;54685;52.082;5.426;2022-11-24T00:01:05;22.77;;;3.88;;
67889;SDS011;54685;52.082;5.426;2022-11-24T00:03:44;21.80;;;3.67;;
67889;SDS011;54685;52.082;5.426;2022-11-24T00:06:12;26.20;;;4.68;;
67889;SDS011;54685;52.082;5.426;2022-11-24T00:08:42;21.55;;;3.65;;
67889;SDS011;54685;52.082;5.426;2022-11-24T00:11:17;22.10;;;3.72;;
67889;SDS011;54685;52.082;5.426;2022-11-24T00:13:45;18.65;;;3.80;;
67889;SDS011;54685;52.082;5.426;2022-11-24T00:16:13;19.38;;;3.97;;
67889;SDS011;54685;52.082;5.426;2022-11-24T00:18:43;23.92;;;4.00;;
67889;SDS011;54685;52.082;5.426;2022-11-24T00:21:11;22.63;;;3.55;;
67889;SDS011;54685;52.082;5.426;2022-11-24T00:23:39;13.73;;;2.85;;
67889;SDS011;54685;52.082;5.426;2022-11-24T00:26:13;14.57;;;2.80;;
67889;SDS011;54685;52.082;5.426;2022-11-24T00:28:42;28.20;;;4.25;;
67889;SDS011;54685;52.082;5.426;2022-11-24T00:31:15;18.75;;;3.03;;
67889;SDS011;54685;52.082;5.426;2022-11-24T00:33:46;22.17;;;3.70;;
67889;SDS011;54685;52.082;5.426;2022-11-24T00:36:15;28.85;;;3.63;;
67889;SDS011;54685;52.082;5.426;2022-11-24T00:38:43;21.65;;;3.75;;
67889;SDS011;54685;52.082;5.426;2022-11-24T00:41:11;28.48;;;4.10;;
67889;SDS011;54685;52.082;5.426;2022-11-24T00:43:38;23.80;;;4.40;;
67889;SDS011;54685;52.082;5.426;2022-11-24T00:46:05;19.30;;;3.33;;
67889;SDS011;54685;52.082;5.426;2022-11-24T00:48:32;26.52;;;3.90;;
67889;SDS011;54685;52.082;5.426;2022-11-24T00:51:03;28.45;;;4.05;;
67889;SDS011;54685;52.082;5.426;2022-11-24T00:53:32;20.85;;;3.88;;
67889;SDS011;54685;52.082;5.426;2022-11-24T00:55:59;25.30;;;4.50;;
67889;SDS011;54685;52.082;5.426;2022-11-24T00:58:25;16.50;;;2.97;;
67889;SDS011;54685;52.082;5.426;2022-11-24T01:00:52;18.60;;;3.33;;
67889;SDS011;54685;52.082;5.426;2022-11-24T01:03:19;23.25;;;4.03;;
67889;SDS011;54685;52.082;5.426;2022-11-24T01:05:47;27.23;;;3.83;;
67889;SDS011;54685;52.082;5.426;2022-11-24T01:08:14;17.48;;;3.58;;
67889;SDS011;54685;52.082;5.426;2022-11-24T01:10:41;20.50;;;3.83;;
67889;SDS011;54685;52.082;5.426;2022-11-24T01:13:08;25.40;;;3.95;;
67889;SDS011;54685;52.082;5.426;2022-11-24T01:15:35;22.75;;;4.10;;
67889;SDS011;54685;52.082;5.426;2022-11-24T01:18:02;19.60;;;3.63;;
67889;SDS011;54685;52.082;5.426;2022-11-24T01:20:30;27.98;;;4.38;;
67889;SDS011;54685;52.082;5.426;2022-11-24T01:22:57;24.38;;;4.43;;
67889;SDS011;54685;52.082;5.426;2022-11-24T01:25:24;21.42;;;3.60;;
67889;SDS011;54685;52.082;5.426;2022-11-24T01:27:51;20.23;;;3.75;;
67889;SDS011;54685;52.082;5.426;2022-11-24T01:30:18;20.42;;;3.42;;
67889;SDS011;54685;52.082;5.426;2022-11-24T01:32:47;26.58;;;3.85;;
67889;SDS011;54685;52.082;5.426;2022-11-24T01:35:14;18.00;;;3.10;;
67889;SDS011;54685;52.082;5.426;2022-11-24T01:37:40;16.65;;;3.33;;
67889;SDS011;54685;52.082;5.426;2022-11-24T01:40:07;20.17;;;3.28;;
67889;SDS011;54685;52.082;5.426;2022-11-24T01:42:36;20.58;;;3.33;;
67889;SDS011;54685;52.082;5.426;2022-11-24T01:45:50;17.90;;;3.13;;
67889;SDS011;54685;52.082;5.426;2022-11-24T01:48:01;21.02;;;3.75;;
67889;SDS011;54685;52.082;5.426;2022-11-24T01:50:30;15.07;;;2.78;;
67889;SDS011;54685;52.082;5.426;2022-11-24T01:52:58;19.00;;;3.20;;
67889;SDS011;54685;52.082;5.426;2022-11-24T01:55:26;17.83;;;3.30;;
67889;SDS011;54685;52.082;5.426;2022-11-24T02:00:35;11.10;;;2.72;;
67889;SDS011;54685;52.082;5.426;2022-11-24T02:03:04;13.77;;;3.67;;
67889;SDS011;54685;52.082;5.426;2022-11-24T02:05:37;20.95;;;3.58;;
67889;SDS011;54685;52.082;5.426;2022-11-24T02:08:12;20.48;;;3.38;;
67889;SDS011;54685;52.082;5.426;2022-11-24T02:11:10;13.02;;;2.20;;
67889;SDS011;54685;52.082;5.426;2022-11-24T02:13:37;17.40;;;3.30;;
67889;SDS011;54685;52.082;5.426;2022-11-24T02:16:07;16.02;;;2.53;;
67889;SDS011;54685;52.082;5.426;2022-11-24T02:18:37;10.23;;;2.50;;
67889;SDS011;54685;52.082;5.426;2022-11-24T02:21:05;16.50;;;2.58;;
67889;SDS011;54685;52.082;5.426;2022-11-24T02:28:51;15.60;;;2.72;;
67889;SDS011;54685;52.082;5.426;2022-11-24T02:31:18;11.38;;;2.40;;
67889;SDS011;54685;52.082;5.426;2022-11-24T02:33:45;19.15;;;3.30;;
67889;SDS011;54685;52.082;5.426;2022-11-24T02:36:13;17.00;;;3.13;;
67889;SDS011;54685;52.082;5.426;2022-11-24T02:38:41;14.60;;;2.65;;
67889;SDS011;54685;52.082;5.426;2022-11-24T02:41:09;16.60;;;3.13;;
67889;SDS011;54685;52.082;5.426;2022-11-24T02:43:41;13.63;;;2.80;;
67889;SDS011;54685;52.082;5.426;2022-11-24T02:46:12;25.25;;;3.83;;
67889;SDS011;54685;52.082;5.426;2022-11-24T02:48:38;13.20;;;2.40;;
67889;SDS011;54685;52.082;5.426;2022-11-24T02:51:05;21.23;;;3.08;;
67889;SDS011;54685;52.082;5.426;2022-11-24T02:53:32;20.40;;;3.33;;
67889;SDS011;54685;52.082;5.426;2022-11-24T02:55:59;9.73;;;2.30;;
67889;SDS011;54685;52.082;5.426;2022-11-24T02:58:26;14.95;;;2.38;;
67889;SDS011;54685;52.082;5.426;2022-11-24T03:00:53;12.57;;;2.42;;
67889;SDS011;54685;52.082;5.426;2022-11-24T03:03:20;14.77;;;2.47;;
67889;SDS011;54685;52.082;5.426;2022-11-24T03:05:47;12.25;;;2.30;;
67889;SDS011;54685;52.082;5.426;2022-11-24T03:08:14;17.35;;;3.22;;
67889;SDS011;54685;52.082;5.426;2022-11-24T03:10:41;16.60;;;2.38;;
67889;SDS011;54685;52.082;5.426;2022-11-24T03:13:08;16.92;;;2.50;;
67889;SDS011;54685;52.082;5.426;2022-11-24T03:15:35;13.10;;;2.03;;
67889;SDS011;54685;52.082;5.426;2022-11-24T03:18:03;13.25;;;2.35;;
67889;SDS011;54685;52.082;5.426;2022-11-24T03:20:30;18.67;;;3.75;;
67889;SDS011;54685;52.082;5.426;2022-11-24T03:22:57;13.38;;;2.55;;
67889;SDS011;54685;52.082;5.426;2022-11-24T03:25:24;13.20;;;2.22;;
67889;SDS011;54685;52.082;5.426;2022-11-24T03:27:52;22.00;;;3.10;;
67889;SDS011;54685;52.082;5.426;2022-11-24T03:30:20;22.75;;;3.25;;
67889;SDS011;54685;52.082;5.426;2022-11-24T03:32:47;15.40;;;2.88;;
67889;SDS011;54685;52.082;5.426;2022-11-24T03:35:16;13.80;;;2.63;;
67889;SDS011;54685;52.082;5.426;2022-11-24T03:37:43;18.73;;;3.00;;
67889;SDS011;54685;52.082;5.426;2022-11-24T03:40:10;17.52;;;3.22;;
67889;SDS011;54685;52.082;5.426;2022-11-24T03:42:38;12.43;;;2.22;;
67889;SDS011;54685;52.082;5.426;2022-11-24T03:45:05;14.13;;;2.63;;
67889;SDS011;54685;52.082;5.426;2022-11-24T03:47:53;13.27;;;2.65;;
67889;SDS011;54685;52.082;5.426;2022-11-24T03:50:20;19.63;;;3.25;;
67889;SDS011;54685;52.082;5.426;2022-11-24T03:52:46;17.95;;;3.17;;
67889;SDS011;54685;52.082;5.426;2022-11-24T03:55:13;16.35;;;3.08;;
67889;SDS011;54685;52.082;5.426;2022-11-24T03:57:40;14.70;;;2.67;;
67889;SDS011;54685;52.082;5.426;2022-11-24T04:00:07;17.23;;;3.22;;
67889;SDS011;54685;52.082;5.426;2022-11-24T04:02:35;17.73;;;2.63;;
67889;SDS011;54685;52.082;5.426;2022-11-24T04:05:02;16.65;;;2.90;;
67889;SDS011;54685;52.082;5.426;2022-11-24T04:07:30;19.20;;;3.10;;
67889;SDS011;54685;52.082;5.426;2022-11-24T04:09:56;17.25;;;3.35;;
67889;SDS011;54685;52.082;5.426;2022-11-24T04:12:23;20.40;;;2.60;;
67889;SDS011;54685;52.082;5.426;2022-11-24T04:15:13;18.90;;;2.92;;
67889;SDS011;54685;52.082;5.426;2022-11-24T04:17:44;17.70;;;2.90;;
67889;SDS011;54685;52.082;5.426;2022-11-24T04:20:12;15.48;;;2.30;;
67889;SDS011;54685;52.082;5.426;2022-11-24T04:22:39;22.15;;;3.45;;
67889;SDS011;54685;52.082;5.426;2022-11-24T04:25:06;20.58;;;3.03;;
67889;SDS011;54685;52.082;5.426;2022-11-24T04:27:34;14.95;;;2.30;;
67889;SDS011;54685;52.082;5.426;2022-11-24T04:30:05;23.90;;;3.60;;
67889;SDS011;54685;52.082;5.426;2022-11-24T04:32:32;16.88;;;3.30;;
67889;SDS011;54685;52.082;5.426;2022-11-24T04:34:59;12.93;;;3.00;;
67889;SDS011;54685;52.082;5.426;2022-11-24T04:37:26;17.80;;;2.97;;
67889;SDS011;54685;52.082;5.426;2022-11-24T04:39:53;17.10;;;2.95;;
67889;SDS011;54685;52.082;5.426;2022-11-24T04:42:20;12.25;;;2.72;;
67889;SDS011;54685;52.082;5.426;2022-11-24T04:44:47;16.35;;;3.17;;
67889;SDS011;54685;52.082;5.426;2022-11-24T04:47:14;13.32;;;2.80;;
67889;SDS011;54685;52.082;5.426;2022-11-24T04:49:43;15.57;;;2.90;;
67889;SDS011;54685;52.082;5.426;2022-11-24T04:52:12;13.65;;;2.92;;
67889;SDS011;54685;52.082;5.426;2022-11-24T04:54:38;19.92;;;3.22;;
67889;SDS011;54685;52.082;5.426;2022-11-24T04:57:05;11.60;;;2.90;;
67889;SDS011;54685;52.082;5.426;2022-11-24T04:59:32;22.65;;;3.58;;
67889;SDS011;54685;52.082;5.426;2022-11-24T05:01:59;14.95;;;2.72;;
67889;SDS011;54685;52.082;5.426;2022-11-24T05:04:26;14.30;;;2.72;;
67889;SDS011;54685;52.082;5.426;2022-11-24T05:06:53;18.42;;;2.80;;
67889;SDS011;54685;52.082;5.426;2022-11-24T05:09:19;15.65;;;3.28;;
67889;SDS011;54685;52.082;5.426;2022-11-24T05:11:46;14.15;;;3.20;;
67889;SDS011;54685;52.082;5.426;2022-11-24T05:14:15;7.25;;;2.40;;
67889;SDS011;54685;52.082;5.426;2022-11-24T05:16:42;13.48;;;2.83;;
67889;SDS011;54685;52.082;5.426;2022-11-24T05:19:09;10.90;;;3.03;;
67889;SDS011;54685;52.082;5.426;2022-11-24T05:21:35;10.98;;;2.50;;
67889;SDS011;54685;52.082;5.426;2022-11-24T05:24:02;10.02;;;2.67;;
67889;SDS011;54685;52.082;5.426;2022-11-24T05:26:29;15.60;;;2.78;;
67889;SDS011;54685;52.082;5.426;2022-11-24T05:28:56;11.00;;;2.30;;
67889;SDS011;54685;52.082;5.426;2022-11-24T05:31:23;9.18;;;2.28;;
67889;SDS011;54685;52.082;5.426;2022-11-24T05:33:50;14.13;;;2.67;;
67889;SDS011;54685;52.082;5.426;2022-11-24T05:36:17;10.15;;;2.47;;
67889;SDS011;54685;52.082;5.426;2022-11-24T05:39:03;9.95;;;2.63;;
67889;SDS011;54685;52.082;5.426;2022-11-24T05:41:30;9.48;;;2.00;;
67889;SDS011;54685;52.082;5.426;2022-11-24T05:43:56;9.40;;;1.77;;
67889;SDS011;54685;52.082;5.426;2022-11-24T05:46:23;8.52;;;1.90;;
67889;SDS011;54685;52.082;5.426;2022-11-24T05:48:50;6.18;;;1.80;;
67889;SDS011;54685;52.082;5.426;2022-11-24T05:51:17;9.57;;;1.50;;
67889;SDS011;54685;52.082;5.426;2022-11-24T05:53:43;8.00;;;1.90;;
67889;SDS011;54685;52.082;5.426;2022-11-24T05:56:10;5.55;;;1.50;;
67889;SDS011;54685;52.082;5.426;2022-11-24T05:58:37;5.38;;;1.45;;
67889;SDS011;54685;52.082;5.426;2022-11-24T06:01:05;4.05;;;1.40;;
67889;SDS011;54685;52.082;5.426;2022-11-24T06:03:35;7.30;;;1.90;;
67889;SDS011;54685;52.082;5.426;2022-11-24T06:06:01;7.43;;;1.85;;
67889;SDS011;54685;52.082;5.426;2022-11-24T06:08:29;5.50;;;1.92;;
67889;SDS011;54685;52.082;5.426;2022-11-24T06:11:00;3.72;;;1.60;;
67889;SDS011;54685;52.082;5.426;2022-11-24T06:13:47;5.57;;;1.80;;
67889;SDS011;54685;52.082;5.426;2022-11-24T06:16:15;6.35;;;1.65;;
67889;SDS011;54685;52.082;5.426;2022-11-24T06:18:42;3.40;;;1.17;;
67889;SDS011;54685;52.082;5.426;2022-11-24T06:21:09;4.93;;;1.77;;
67889;SDS011;54685;52.082;5.426;2022-11-24T06:23:37;5.25;;;1.50;;
67889;SDS011;54685;52.082;5.426;2022-11-24T06:26:05;8.30;;;2.25;;
67889;SDS011;54685;52.082;5.426;2022-11-24T06:28:34;5.18;;;1.58;;
67889;SDS011;54685;52.082;5.426;2022-11-24T06:31:02;10.48;;;2.65;;
67889;SDS011;54685;52.082;5.426;2022-11-24T06:33:30;9.05;;;3.17;;
67889;SDS011;54685;52.082;5.426;2022-11-24T06:36:01;11.33;;;3.83;;
67889;SDS011;54685;52.082;5.426;2022-11-24T06:38:29;8.48;;;3.42;;
67889;SDS011;54685;52.082;5.426;2022-11-24T06:41:00;5.15;;;2.38;;
67889;SDS011;54685;52.082;5.426;2022-11-24T06:43:29;6.33;;;2.80;;
67889;SDS011;54685;52.082;5.426;2022-11-24T06:45:56;6.75;;;2.97;;
67889;SDS011;54685;52.082;5.426;2022-11-24T06:48:23;7.50;;;3.25;;
67889;SDS011;54685;52.082;5.426;2022-11-24T06:50:51;5.60;;;3.28;;
67889;SDS011;54685;52.082;5.426;2022-11-24T06:53:19;7.32;;;3.20;;
67889;SDS011;54685;52.082;5.426;2022-11-24T06:55:45;6.22;;;3.90;;
67889;SDS011;54685;52.082;5.426;2022-11-24T06:58:13;8.25;;;4.00;;
67889;SDS011;54685;52.082;5.426;2022-11-24T07:00:39;10.18;;;4.82;;
67889;SDS011;54685;52.082;5.426;2022-11-24T07:03:08;5.78;;;3.85;;
67889;SDS011;54685;52.082;5.426;2022-11-24T07:05:41;6.93;;;4.28;;
67889;SDS011;54685;52.082;5.426;2022-11-24T07:08:08;7.43;;;4.70;;
67889;SDS011;54685;52.082;5.426;2022-11-24T07:10:42;6.57;;;4.38;;
67889;SDS011;54685;52.082;5.426;2022-11-24T07:13:09;11.60;;;5.25;;
67889;SDS011;54685;52.082;5.426;2022-11-24T07:15:36;7.97;;;4.90;;
67889;SDS011;54685;52.082;5.426;2022-11-24T07:18:03;11.07;;;5.30;;
67889;SDS011;54685;52.082;5.426;2022-11-24T07:20:30;10.07;;;5.30;;
67889;SDS011;54685;52.082;5.426;2022-11-24T07:22:57;10.90;;;5.70;;
67889;SDS011;54685;52.082;5.426;2022-11-24T07:25:24;6.00;;;4.60;;
67889;SDS011;54685;52.082;5.426;2022-11-24T07:27:54;10.05;;;5.68;;
67889;SDS011;54685;52.082;5.426;2022-11-24T07:30:23;10.82;;;5.63;;
67889;SDS011;54685;52.082;5.426;2022-11-24T07:32:50;13.88;;;6.13;;
67889;SDS011;54685;52.082;5.426;2022-11-24T07:35:17;11.40;;;6.10;;
67889;SDS011;54685;52.082;5.426;2022-11-24T07:37:44;9.05;;;5.90;;
67889;SDS011;54685;52.082;5.426;2022-11-24T07:40:11;11.88;;;7.18;;
67889;SDS011;54685;52.082;5.426;2022-11-24T07:42:38;9.07;;;6.18;;
67889;SDS011;54685;52.082;5.426;2022-11-24T07:45:05;14.55;;;7.45;;
67889;SDS011;54685;52.082;5.426;2022-11-24T07:47:32;15.50;;;9.18;;
67889;SDS011;54685;52.082;5.426;2022-11-24T07:49:59;9.40;;;6.82;;
67889;SDS011;54685;52.082;5.426;2022-11-24T07:52:25;12.98;;;7.35;;
67889;SDS011;54685;52.082;5.426;2022-11-24T07:54:52;12.95;;;7.35;;
67889;SDS011;54685;52.082;5.426;2022-11-24T07:57:19;12.98;;;7.78;;
67889;SDS011;54685;52.082;5.426;2022-11-24T07:59:45;11.25;;;6.85;;
67889;SDS011;54685;52.082;5.426;2022-11-24T08:02:12;14.18;;;6.53;;
67889;SDS011;54685;52.082;5.426;2022-11-24T08:04:39;12.77;;;8.40;;
67889;SDS011;54685;52.082;5.426;2022-11-24T08:07:06;13.35;;;7.18;;
67889;SDS011;54685;52.082;5.426;2022-11-24T08:09:33;12.73;;;6.97;;
67889;SDS011;54685;52.082;5.426;2022-11-24T08:11:59;11.43;;;7.10;;
67889;SDS011;54685;52.082;5.426;2022-11-24T08:14:26;11.48;;;7.03;;
67889;SDS011;54685;52.082;5.426;2022-11-24T08:16:53;17.30;;;7.68;;
67889;SDS011;54685;52.082;5.426;2022-11-24T08:19:20;16.52;;;7.90;;
67889;SDS011;54685;52.082;5.426;2022-11-24T08:21:47;15.98;;;7.10;;
67889;SDS011;54685;52.082;5.426;2022-11-24T08:24:14;16.17;;;7.35;;
67889;SDS011;54685;52.082;5.426;2022-11-24T08:26:42;15.20;;;7.70;;
67889;SDS011;54685;52.082;5.426;2022-11-24T08:29:08;13.70;;;6.82;;
67889;SDS011;54685;52.082;5.426;2022-11-24T08:31:36;22.20;;;7.22;;
67889;SDS011;54685;52.082;5.426;2022-11-24T08:34:04;17.25;;;7.30;;
67889;SDS011;54685;52.082;5.426;2022-11-24T08:36:31;12.35;;;7.00;;
67889;SDS011;54685;52.082;5.426;2022-11-24T08:38:59;14.27;;;7.03;;
67889;SDS011;54685;52.082;5.426;2022-11-24T08:41:26;13.30;;;6.63;;
67889;SDS011;54685;52.082;5.426;2022-11-24T08:43:54;14.90;;;6.50;;
67889;SDS011;54685;52.082;5.426;2022-11-24T08:46:21;11.82;;;6.13;;
67889;SDS011;54685;52.082;5.426;2022-11-24T08:48:50;16.52;;;6.10;;
67889;SDS011;54685;52.082;5.426;2022-11-24T08:51:20;22.05;;;6.82;;
67889;SDS011;54685;52.082;5.426;2022-11-24T08:53:52;17.45;;;5.97;;
67889;SDS011;54685;52.082;5.426;2022-11-24T08:56:24;13.02;;;5.63;;
67889;SDS011;54685;52.082;5.426;2022-11-24T08:58:52;13.65;;;6.13;;
67889;SDS011;54685;52.082;5.426;2022-11-24T09:01:20;14.77;;;6.45;;
67889;SDS011;54685;52.082;5.426;2022-11-24T09:03:48;13.85;;;5.35;;
67889;SDS011;54685;52.082;5.426;2022-11-24T09:06:20;16.67;;;5.40;;
67889;SDS011;54685;52.082;5.426;2022-11-24T09:08:50;14.10;;;4.95;;
67889;SDS011;54685;52.082;5.426;2022-11-24T09:11:21;11.65;;;4.40;;
67889;SDS011;54685;52.082;5.426;2022-11-24T09:13:48;12.05;;;4.18;;
67889;SDS011;54685;52.082;5.426;2022-11-24T09:16:17;9.27;;;4.38;;
67889;SDS011;54685;52.082;5.426;2022-11-24T09:18:45;9.52;;;3.58;;
67889;SDS011;54685;52.082;5.426;2022-11-24T09:21:16;10.57;;;3.63;;
67889;SDS011;54685;52.082;5.426;2022-11-24T09:23:45;15.13;;;4.85;;
67889;SDS011;54685;52.082;5.426;2022-11-24T09:28:42;8.70;;;3.75;;
67889;SDS011;54685;52.082;5.426;2022-11-24T09:31:12;13.73;;;4.05;;
67889;SDS011;54685;52.082;5.426;2022-11-24T09:33:40;8.32;;;3.90;;
67889;SDS011;54685;52.082;5.426;2022-11-24T09:36:07;16.35;;;3.78;;
67889;SDS011;54685;52.082;5.426;2022-11-24T09:38:34;12.45;;;3.92;;
67889;SDS011;54685;52.082;5.426;2022-11-24T09:41:11;13.75;;;3.88;;
67889;SDS011;54685;52.082;5.426;2022-11-24T09:44:06;12.13;;;3.45;;
67889;SDS011;54685;52.082;5.426;2022-11-24T09:49:20;13.50;;;4.38;;
67889;SDS011;54685;52.082;5.426;2022-11-24T09:51:52;16.30;;;4.47;;
67889;SDS011;54685;52.082;5.426;2022-11-24T09:54:25;15.80;;;4.10;;
67889;SDS011;54685;52.082;5.426;2022-11-24T09:56:56;15.15;;;3.55;;
67889;SDS011;54685;52.082;5.426;2022-11-24T09:59:26;13.90;;;4.07;;
67889;SDS011;54685;52.082;5.426;2022-11-24T10:01:54;9.65;;;3.13;;
67889;SDS011;54685;52.082;5.426;2022-11-24T10:04:28;16.13;;;3.60;;
67889;SDS011;54685;52.082;5.426;2022-11-24T10:07:14;12.85;;;3.25;;
67889;SDS011;54685;52.082;5.426;2022-11-24T10:20:51;11.48;;;3.50;;
67889;SDS011;54685;52.082;5.426;2022-11-24T10:29:07;18.10;;;3.80;;
67889;SDS011;54685;52.082;5.426;2022-11-24T10:31:52;11.98;;;2.90;;
67889;SDS011;54685;52.082;5.426;2022-11-24T10:40:08;10.68;;;2.42;;
67889;SDS011;54685;52.082;5.426;2022-11-24T10:42:59;13.23;;;2.95;;
67889;SDS011;54685;52.082;5.426;2022-11-24T10:45:26;13.25;;;3.05;;
67889;SDS011;54685;52.082;5.426;2022-11-24T10:47:54;12.88;;;2.85;;
67889;SDS011;54685;52.082;5.426;2022-11-24T10:50:23;19.00;;;3.55;;
67889;SDS011;54685;52.082;5.426;2022-11-24T10:53:03;14.25;;;3.33;;
67889;SDS011;54685;52.082;5.426;2022-11-24T11:03:52;12.65;;;3.00;;
67889;SDS011;54685;52.082;5.426;2022-11-24T11:06:25;15.75;;;3.20;;
67889;SDS011;54685;52.082;5.426;2022-11-24T11:11:33;13.35;;;2.85;;
67889;SDS011;54685;52.082;5.426;2022-11-24T11:14:01;13.95;;;3.40;;
67889;SDS011;54685;52.082;5.426;2022-11-24T11:16:40;17.80;;;3.13;;
67889;SDS011;54685;52.082;5.426;2022-11-24T11:27:37;14.07;;;4.03;;
67889;SDS011;54685;52.082;5.426;2022-11-24T11:30:18;13.30;;;3.25;;
67889;SDS011;54685;52.082;5.426;2022-11-24T11:33:20;20.60;;;4.30;;
67889;SDS011;54685;52.082;5.426;2022-11-24T11:36:09;20.02;;;3.42;;
67889;SDS011;54685;52.082;5.426;2022-11-24T11:38:37;18.80;;;4.40;;
67889;SDS011;54685;52.082;5.426;2022-11-24T11:41:05;16.63;;;4.05;;
67889;SDS011;54685;52.082;5.426;2022-11-24T11:43:41;17.40;;;3.40;;
67889;SDS011;54685;52.082;5.426;2022-11-24T11:46:11;17.45;;;3.63;;
67889;SDS011;54685;52.082;5.426;2022-11-24T11:48:41;12.10;;;3.72;;
67889;SDS011;54685;52.082;5.426;2022-11-24T11:56:42;18.13;;;3.80;;
67889;SDS011;54685;52.082;5.426;2022-11-24T12:18:55;17.00;;;3.70;;
67889;SDS011;54685;52.082;5.426;2022-11-24T12:21:33;15.40;;;3.40;;
67889;SDS011;54685;52.082;5.426;2022-11-24T12:29:40;18.23;;;3.40;;
67889;SDS011;54685;52.082;5.426;2022-11-24T12:33:00;16.85;;;3.75;;
67889;SDS011;54685;52.082;5.426;2022-11-24T12:35:15;16.58;;;2.95;;
67889;SDS011;54685;52.082;5.426;2022-11-24T12:44:00;12.57;;;3.00;;
67889;SDS011;54685;52.082;5.426;2022-11-24T12:52:02;20.02;;;3.25;;
67889;SDS011;54685;52.082;5.426;2022-11-24T12:54:35;14.25;;;3.10;;
67889;SDS011;54685;52.082;5.426;2022-11-24T12:57:11;18.38;;;4.32;;
67889;SDS011;54685;52.082;5.426;2022-11-24T12:59:47;19.17;;;3.47;;
67889;SDS011;54685;52.082;5.426;2022-11-24T13:07:58;17.67;;;3.53;;
67889;SDS011;54685;52.082;5.426;2022-11-24T13:10:28;14.75;;;3.30;;
67889;SDS011;54685;52.082;5.426;2022-11-24T13:13:15;15.38;;;3.60;;
67889;SDS011;54685;52.082;5.426;2022-11-24T13:18:42;19.25;;;3.25;;
67889;SDS011;54685;52.082;5.426;2022-11-24T13:26:52;18.30;;;3.17;;
67889;SDS011;54685;52.082;5.426;2022-11-24T13:29:41;17.38;;;3.53;;
67889;SDS011;54685;52.082;5.426;2022-11-24T13:40:02;22.65;;;3.55;;
67889;SDS011;54685;52.082;5.426;2022-11-24T13:53:35;17.85;;;3.35;;
67889;SDS011;54685;52.082;5.426;2022-11-24T14:01:21;16.23;;;3.05;;
67889;SDS011;54685;52.082;5.426;2022-11-24T14:06:57;20.55;;;3.85;;
67889;SDS011;54685;52.082;5.426;2022-11-24T14:09:49;16.75;;;3.33;;
67889;SDS011;54685;52.082;5.426;2022-11-24T14:12:20;17.35;;;3.45;;
67889;SDS011;54685;52.082;5.426;2022-11-24T14:14:48;18.52;;;3.83;;
67889;SDS011;54685;52.082;5.426;2022-11-24T14:17:21;15.63;;;3.10;;
67889;SDS011;54685;52.082;5.426;2022-11-24T14:19:50;13.48;;;2.45;;
67889;SDS011;54685;52.082;5.426;2022-11-24T14:22:38;20.00;;;3.00;;
67889;SDS011;54685;52.082;5.426;2022-11-24T14:25:17;12.38;;;2.92;;
67889;SDS011;54685;52.082;5.426;2022-11-24T14:27:47;23.90;;;3.47;;
67889;SDS011;54685;52.082;5.426;2022-11-24T14:30:16;21.67;;;3.50;;
67889;SDS011;54685;52.082;5.426;2022-11-24T14:32:52;19.65;;;3.00;;
67889;SDS011;54685;52.082;5.426;2022-11-24T14:37:51;17.42;;;3.55;;
67889;SDS011;54685;52.082;5.426;2022-11-24T14:40:37;13.27;;;2.40;;
67889;SDS011;54685;52.082;5.426;2022-11-24T14:43:04;16.20;;;2.88;;
67889;SDS011;54685;52.082;5.426;2022-11-24T14:45:46;16.52;;;2.97;;
67889;SDS011;54685;52.082;5.426;2022-11-24T14:48:35;16.60;;;2.80;;
67889;SDS011;54685;52.082;5.426;2022-11-24T14:51:18;23.67;;;6.07;;
67889;SDS011;54685;52.082;5.426;2022-11-24T14:53:49;29.38;;;5.90;;
67889;SDS011;54685;52.082;5.426;2022-11-24T14:56:37;19.63;;;3.53;;
67889;SDS011;54685;52.082;5.426;2022-11-24T14:59:20;16.80;;;3.05;;
67889;SDS011;54685;52.082;5.426;2022-11-24T15:01:49;15.18;;;3.05;;
67889;SDS011;54685;52.082;5.426;2022-11-24T15:04:20;20.77;;;3.00;;
67889;SDS011;54685;52.082;5.426;2022-11-24T15:12:24;15.18;;;2.80;;
67889;SDS011;54685;52.082;5.426;2022-11-24T15:14:57;15.55;;;3.55;;
67889;SDS011;54685;52.082;5.426;2022-11-24T15:17:32;22.35;;;3.42;;
67889;SDS011;54685;52.082;5.426;2022-11-24T15:20:00;21.70;;;3.42;;
67889;SDS011;54685;52.082;5.426;2022-11-24T15:22:37;22.17;;;3.35;;
67889;SDS011;54685;52.082;5.426;2022-11-24T15:25:25;19.58;;;3.63;;
67889;SDS011;54685;52.082;5.426;2022-11-24T15:27:59;17.88;;;3.20;;
67889;SDS011;54685;52.082;5.426;2022-11-24T15:30:26;18.00;;;2.92;;
67889;SDS011;54685;52.082;5.426;2022-11-24T15:32:54;21.88;;;3.35;;
67889;SDS011;54685;52.082;5.426;2022-11-24T15:35:23;17.27;;;3.40;;
67889;SDS011;54685;52.082;5.426;2022-11-24T15:37:51;20.50;;;3.55;;
67889;SDS011;54685;52.082;5.426;2022-11-24T15:40:18;18.98;;;3.40;;
67889;SDS011;54685;52.082;5.426;2022-11-24T15:42:49;12.25;;;2.60;;
67889;SDS011;54685;52.082;5.426;2022-11-24T15:45:18;19.48;;;3.47;;
67889;SDS011;54685;52.082;5.426;2022-11-24T15:47:46;22.13;;;4.18;;
67889;SDS011;54685;52.082;5.426;2022-11-24T15:50:13;19.63;;;3.72;;
67889;SDS011;54685;52.082;5.426;2022-11-24T15:52:40;16.15;;;3.30;;
67889;SDS011;54685;52.082;5.426;2022-11-24T15:55:13;20.65;;;3.50;;
67889;SDS011;54685;52.082;5.426;2022-11-24T15:57:43;19.08;;;3.63;;
67889;SDS011;54685;52.082;5.426;2022-11-24T16:00:17;14.38;;;4.20;;
67889;SDS011;54685;52.082;5.426;2022-11-24T16:02:45;15.82;;;3.47;;
67889;SDS011;54685;52.082;5.426;2022-11-24T16:05:12;15.32;;;3.28;;
67889;SDS011;54685;52.082;5.426;2022-11-24T16:07:40;14.77;;;3.42;;
67889;SDS011;54685;52.082;5.426;2022-11-24T16:10:20;20.92;;;3.65;;
67889;SDS011;54685;52.082;5.426;2022-11-24T16:12:51;22.42;;;3.63;;
67889;SDS011;54685;52.082;5.426;2022-11-24T16:15:17;20.10;;;3.35;;
67889;SDS011;54685;52.082;5.426;2022-11-24T16:17:45;15.43;;;3.47;;
67889;SDS011;54685;52.082;5.426;2022-11-24T16:20:12;21.67;;;3.50;;
67889;SDS011;54685;52.082;5.426;2022-11-24T16:22:39;19.85;;;3.70;;
67889;SDS011;54685;52.082;5.426;2022-11-24T16:25:05;19.98;;;3.35;;
67889;SDS011;54685;52.082;5.426;2022-11-24T16:27:33;19.85;;;3.08;;
67889;SDS011;54685;52.082;5.426;2022-11-24T16:29:59;20.52;;;3.47;;
67889;SDS011;54685;52.082;5.426;2022-11-24T16:32:26;23.65;;;3.53;;
67889;SDS011;54685;52.082;5.426;2022-11-24T16:34:53;17.17;;;3.45;;
67889;SDS011;54685;52.082;5.426;2022-11-24T16:37:20;14.32;;;3.92;;
67889;SDS011;54685;52.082;5.426;2022-11-24T16:39:47;18.52;;;4.10;;
67889;SDS011;54685;52.082;5.426;2022-11-24T16:42:15;18.60;;;3.38;;
67889;SDS011;54685;52.082;5.426;2022-11-24T16:44:42;15.85;;;2.75;;
67889;SDS011;54685;52.082;5.426;2022-11-24T16:47:09;17.08;;;3.28;;
67889;SDS011;54685;52.082;5.426;2022-11-24T16:49:38;14.90;;;3.58;;
67889;SDS011;54685;52.082;5.426;2022-11-24T16:52:04;15.65;;;3.30;;
67889;SDS011;54685;52.082;5.426;2022-11-24T16:54:31;19.27;;;3.75;;
67889;SDS011;54685;52.082;5.426;2022-11-24T16:56:59;21.77;;;3.47;;
67889;SDS011;54685;52.082;5.426;2022-11-24T16:59:25;19.10;;;3.38;;
67889;SDS011;54685;52.082;5.426;2022-11-24T17:01:52;18.30;;;3.45;;
67889;SDS011;54685;52.082;5.426;2022-11-24T17:04:19;16.23;;;3.75;;
67889;SDS011;54685;52.082;5.426;2022-11-24T17:06:46;16.42;;;2.97;;
67889;SDS011;54685;52.082;5.426;2022-11-24T17:09:13;20.35;;;4.63;;
67889;SDS011;54685;52.082;5.426;2022-11-24T17:11:40;16.60;;;3.58;;
67889;SDS011;54685;52.082;5.426;2022-11-24T17:14:08;16.00;;;4.30;;
67889;SDS011;54685;52.082;5.426;2022-11-24T17:16:35;20.40;;;4.05;;
67889;SDS011;54685;52.082;5.426;2022-11-24T17:19:03;16.58;;;3.45;;